sensor_id;sensor_type;location;lat;lon;timestamp;P1;durP1;ratioP1;P2;durP2;ratioP2
17790;SDS011;9019;48.132;-1.210;2023-04-15T00:00:18;2.97;;;1.20;;
17790;SDS011;9019;48.132;-1.210;2023-04-15T00:02:47;2.70;;;1.03;;
17790;SDS011;9019;48.132;-1.210;2023-04-15T00:05:14;3.00;;;1.20;;
17790;SDS011;9019;48.132;-1.210;2023-04-15T00:07:41;4.43;;;1.20;;
17790;SDS011;9019;48.132;-1.210;2023-04-15T00:10:09;6.67;;;1.50;;
17790;SDS011;9019;48.132;-1.210;2023-04-15T00:12:39;6.27;;;1.30;;
17790;SDS011;9019;48.132;-1.210;2023-04-15T00:15:07;6.77;;;1.40;;
17790;SDS011;9019;48.132;-1.210;2023-04-15T00:17:34;4.90;;;1.30;;
17790;SDS011;9019;48.132;-1.210;2023-04-15T00:20:05;4.23;;;1.40;;
17790;SDS011;9019;48.132;-1.210;2023-04-15T00:22:32;5.03;;;1.57;;
17790;SDS011;9019;48.132;-1.210;2023-04-15T00:24:59;5.77;;;1.30;;
17790;SDS011;9019;48.132;-1.210;2023-04-15T00:27:27;5.10;;;1.23;;
17790;SDS011;9019;48.132;-1.210;2023-04-15T00:29:54;3.17;;;1.27;;
17790;SDS011;9019;48.132;-1.210;2023-04-15T00:32:22;3.80;;;1.10;;
17790;SDS011;9019;48.132;-1.210;2023-04-15T00:34:49;4.93;;;1.10;;
17790;SDS011;9019;48.132;-1.210;2023-04-15T00:37:17;4.90;;;0.90;;
17790;SDS011;9019;48.132;-1.210;2023-04-15T00:39:45;3.67;;;1.07;;
17790;SDS011;9019;48.132;-1.210;2023-04-15T00:42:12;5.53;;;1.17;;
17790;SDS011;9019;48.132;-1.210;2023-04-15T00:44:39;4.33;;;0.90;;
17790;SDS011;9019;48.132;-1.210;2023-04-15T00:47:06;5.57;;;1.20;;
17790;SDS011;9019;48.132;-1.210;2023-04-15T00:49:34;6.17;;;1.03;;
17790;SDS011;9019;48.132;-1.210;2023-04-15T00:52:01;4.53;;;1.47;;
17790;SDS011;9019;48.132;-1.210;2023-04-15T00:54:30;4.13;;;0.80;;
17790;SDS011;9019;48.132;-1.210;2023-04-15T00:56:57;5.00;;;1.13;;
17790;SDS011;9019;48.132;-1.210;2023-04-15T00:59:24;2.53;;;0.90;;
17790;SDS011;9019;48.132;-1.210;2023-04-15T01:01:52;6.73;;;1.10;;
17790;SDS011;9019;48.132;-1.210;2023-04-15T01:04:19;2.57;;;0.90;;
17790;SDS011;9019;48.132;-1.210;2023-04-15T01:06:46;5.27;;;1.20;;
17790;SDS011;9019;48.132;-1.210;2023-04-15T01:09:13;4.63;;;1.00;;
17790;SDS011;9019;48.132;-1.210;2023-04-15T01:11:42;4.97;;;1.00;;
17790;SDS011;9019;48.132;-1.210;2023-04-15T01:14:09;9.93;;;1.20;;
17790;SDS011;9019;48.132;-1.210;2023-04-15T01:16:36;4.07;;;1.00;;
17790;SDS011;9019;48.132;-1.210;2023-04-15T01:19:05;6.57;;;1.10;;
17790;SDS011;9019;48.132;-1.210;2023-04-15T01:21:35;2.83;;;0.90;;
17790;SDS011;9019;48.132;-1.210;2023-04-15T01:24:03;6.00;;;1.13;;
17790;SDS011;9019;48.132;-1.210;2023-04-15T01:26:36;5.87;;;1.17;;
17790;SDS011;9019;48.132;-1.210;2023-04-15T01:29:03;3.90;;;1.00;;
17790;SDS011;9019;48.132;-1.210;2023-04-15T01:31:30;5.00;;;0.93;;
17790;SDS011;9019;48.132;-1.210;2023-04-15T01:33:58;3.23;;;0.83;;
17790;SDS011;9019;48.132;-1.210;2023-04-15T01:36:25;4.80;;;1.00;;
17790;SDS011;9019;48.132;-1.210;2023-04-15T01:38:54;5.57;;;0.90;;
17790;SDS011;9019;48.132;-1.210;2023-04-15T01:41:21;3.90;;;1.13;;
17790;SDS011;9019;48.132;-1.210;2023-04-15T01:43:52;4.90;;;1.10;;
17790;SDS011;9019;48.132;-1.210;2023-04-15T01:46:19;8.00;;;1.20;;
17790;SDS011;9019;48.132;-1.210;2023-04-15T01:48:46;3.90;;;1.10;;
17790;SDS011;9019;48.132;-1.210;2023-04-15T01:51:14;4.27;;;1.03;;
17790;SDS011;9019;48.132;-1.210;2023-04-15T01:53:41;4.13;;;1.20;;
17790;SDS011;9019;48.132;-1.210;2023-04-15T01:56:08;3.30;;;1.03;;
17790;SDS011;9019;48.132;-1.210;2023-04-15T01:58:36;4.27;;;1.00;;
17790;SDS011;9019;48.132;-1.210;2023-04-15T02:01:05;3.83;;;1.10;;
17790;SDS011;9019;48.132;-1.210;2023-04-15T02:03:34;3.10;;;1.10;;
17790;SDS011;9019;48.132;-1.210;2023-04-15T02:06:01;4.77;;;1.20;;
17790;SDS011;9019;48.132;-1.210;2023-04-15T02:08:30;4.47;;;1.33;;
17790;SDS011;9019;48.132;-1.210;2023-04-15T02:10:57;4.07;;;1.07;;
17790;SDS011;9019;48.132;-1.210;2023-04-15T02:13:25;4.53;;;1.00;;
17790;SDS011;9019;48.132;-1.210;2023-04-15T02:15:53;4.43;;;1.10;;
17790;SDS011;9019;48.132;-1.210;2023-04-15T02:18:22;3.90;;;1.30;;
17790;SDS011;9019;48.132;-1.210;2023-04-15T02:20:50;5.70;;;1.20;;
17790;SDS011;9019;48.132;-1.210;2023-04-15T02:23:17;6.53;;;1.03;;
17790;SDS011;9019;48.132;-1.210;2023-04-15T02:25:47;6.90;;;1.17;;
17790;SDS011;9019;48.132;-1.210;2023-04-15T02:28:15;7.43;;;1.40;;
17790;SDS011;9019;48.132;-1.210;2023-04-15T02:30:42;6.67;;;1.30;;
17790;SDS011;9019;48.132;-1.210;2023-04-15T02:33:09;6.33;;;1.30;;
17790;SDS011;9019;48.132;-1.210;2023-04-15T02:35:37;4.43;;;1.50;;
17790;SDS011;9019;48.132;-1.210;2023-04-15T02:38:08;5.77;;;1.23;;
17790;SDS011;9019;48.132;-1.210;2023-04-15T02:40:35;6.03;;;1.17;;
17790;SDS011;9019;48.132;-1.210;2023-04-15T02:43:02;5.73;;;1.73;;
17790;SDS011;9019;48.132;-1.210;2023-04-15T02:45:31;4.90;;;1.60;;
17790;SDS011;9019;48.132;-1.210;2023-04-15T02:47:58;7.70;;;1.20;;
17790;SDS011;9019;48.132;-1.210;2023-04-15T02:50:30;5.53;;;1.40;;
17790;SDS011;9019;48.132;-1.210;2023-04-15T02:52:58;7.53;;;1.23;;
17790;SDS011;9019;48.132;-1.210;2023-04-15T02:55:26;5.87;;;1.20;;
17790;SDS011;9019;48.132;-1.210;2023-04-15T02:57:54;4.67;;;1.23;;
17790;SDS011;9019;48.132;-1.210;2023-04-15T03:00:22;6.53;;;1.40;;
17790;SDS011;9019;48.132;-1.210;2023-04-15T03:02:50;6.73;;;1.20;;
17790;SDS011;9019;48.132;-1.210;2023-04-15T03:05:20;5.87;;;1.30;;
17790;SDS011;9019;48.132;-1.210;2023-04-15T03:07:49;7.67;;;1.50;;
17790;SDS011;9019;48.132;-1.210;2023-04-15T03:10:18;8.53;;;1.80;;
17790;SDS011;9019;48.132;-1.210;2023-04-15T03:12:45;6.50;;;1.50;;
17790;SDS011;9019;48.132;-1.210;2023-04-15T03:15:12;6.13;;;1.43;;
17790;SDS011;9019;48.132;-1.210;2023-04-15T03:17:39;5.60;;;1.23;;
17790;SDS011;9019;48.132;-1.210;2023-04-15T03:20:07;5.90;;;1.37;;
17790;SDS011;9019;48.132;-1.210;2023-04-15T03:22:34;9.97;;;1.27;;
17790;SDS011;9019;48.132;-1.210;2023-04-15T03:25:01;7.70;;;1.40;;
17790;SDS011;9019;48.132;-1.210;2023-04-15T03:27:30;9.63;;;1.70;;
17790;SDS011;9019;48.132;-1.210;2023-04-15T03:29:57;6.33;;;1.60;;
17790;SDS011;9019;48.132;-1.210;2023-04-15T03:32:24;5.17;;;1.30;;
17790;SDS011;9019;48.132;-1.210;2023-04-15T03:34:51;5.80;;;1.50;;
17790;SDS011;9019;48.132;-1.210;2023-04-15T03:37:18;6.40;;;1.97;;
17790;SDS011;9019;48.132;-1.210;2023-04-15T03:39:46;4.93;;;1.57;;
17790;SDS011;9019;48.132;-1.210;2023-04-15T03:42:13;4.80;;;1.30;;
17790;SDS011;9019;48.132;-1.210;2023-04-15T03:44:42;8.27;;;1.47;;
17790;SDS011;9019;48.132;-1.210;2023-04-15T03:47:09;6.53;;;1.50;;
17790;SDS011;9019;48.132;-1.210;2023-04-15T03:49:36;4.10;;;1.17;;
17790;SDS011;9019;48.132;-1.210;2023-04-15T03:52:03;4.47;;;1.30;;
17790;SDS011;9019;48.132;-1.210;2023-04-15T03:54:30;6.33;;;1.57;;
17790;SDS011;9019;48.132;-1.210;2023-04-15T03:56:58;9.67;;;2.10;;
17790;SDS011;9019;48.132;-1.210;2023-04-15T03:59:25;7.83;;;1.70;;
17790;SDS011;9019;48.132;-1.210;2023-04-15T04:01:53;8.60;;;1.70;;
17790;SDS011;9019;48.132;-1.210;2023-04-15T04:04:21;5.17;;;1.37;;
17790;SDS011;9019;48.132;-1.210;2023-04-15T04:06:48;8.63;;;1.43;;
17790;SDS011;9019;48.132;-1.210;2023-04-15T04:09:15;10.93;;;1.60;;
17790;SDS011;9019;48.132;-1.210;2023-04-15T04:11:42;8.80;;;1.80;;
17790;SDS011;9019;48.132;-1.210;2023-04-15T04:14:10;9.83;;;1.83;;
17790;SDS011;9019;48.132;-1.210;2023-04-15T04:16:37;5.00;;;1.60;;
17790;SDS011;9019;48.132;-1.210;2023-04-15T04:19:06;7.80;;;1.80;;
17790;SDS011;9019;48.132;-1.210;2023-04-15T04:21:33;6.27;;;1.60;;
17790;SDS011;9019;48.132;-1.210;2023-04-15T04:24:00;5.97;;;1.40;;
17790;SDS011;9019;48.132;-1.210;2023-04-15T04:26:28;3.87;;;1.30;;
17790;SDS011;9019;48.132;-1.210;2023-04-15T04:28:55;5.50;;;1.40;;
17790;SDS011;9019;48.132;-1.210;2023-04-15T04:31:22;8.43;;;1.47;;
17790;SDS011;9019;48.132;-1.210;2023-04-15T04:33:49;6.43;;;1.20;;
17790;SDS011;9019;48.132;-1.210;2023-04-15T04:36:18;5.20;;;1.30;;
17790;SDS011;9019;48.132;-1.210;2023-04-15T04:38:45;5.57;;;1.70;;
17790;SDS011;9019;48.132;-1.210;2023-04-15T04:41:12;6.17;;;1.40;;
17790;SDS011;9019;48.132;-1.210;2023-04-15T04:43:39;8.33;;;1.77;;
17790;SDS011;9019;48.132;-1.210;2023-04-15T04:46:06;6.47;;;1.50;;
17790;SDS011;9019;48.132;-1.210;2023-04-15T04:48:34;5.07;;;1.43;;
17790;SDS011;9019;48.132;-1.210;2023-04-15T04:51:01;5.87;;;1.40;;
17790;SDS011;9019;48.132;-1.210;2023-04-15T04:53:30;7.57;;;1.80;;
17790;SDS011;9019;48.132;-1.210;2023-04-15T04:55:57;8.10;;;1.40;;
17790;SDS011;9019;48.132;-1.210;2023-04-15T04:58:24;6.67;;;1.43;;
17790;SDS011;9019;48.132;-1.210;2023-04-15T05:00:52;5.97;;;1.63;;
17790;SDS011;9019;48.132;-1.210;2023-04-15T05:03:19;9.70;;;1.87;;
17790;SDS011;9019;48.132;-1.210;2023-04-15T05:05:46;6.97;;;1.63;;
17790;SDS011;9019;48.132;-1.210;2023-04-15T05:08:14;11.03;;;2.00;;
17790;SDS011;9019;48.132;-1.210;2023-04-15T05:10:42;7.77;;;1.60;;
17790;SDS011;9019;48.132;-1.210;2023-04-15T05:13:10;6.90;;;1.60;;
17790;SDS011;9019;48.132;-1.210;2023-04-15T05:15:37;6.93;;;1.40;;
17790;SDS011;9019;48.132;-1.210;2023-04-15T05:18:05;7.03;;;1.60;;
17790;SDS011;9019;48.132;-1.210;2023-04-15T05:20:32;6.97;;;1.90;;
17790;SDS011;9019;48.132;-1.210;2023-04-15T05:22:59;7.17;;;1.67;;
17790;SDS011;9019;48.132;-1.210;2023-04-15T05:25:26;7.63;;;1.90;;
17790;SDS011;9019;48.132;-1.210;2023-04-15T05:27:55;8.10;;;1.80;;
17790;SDS011;9019;48.132;-1.210;2023-04-15T05:30:22;8.73;;;1.73;;
17790;SDS011;9019;48.132;-1.210;2023-04-15T05:32:49;6.40;;;1.50;;
17790;SDS011;9019;48.132;-1.210;2023-04-15T05:35:16;6.43;;;1.50;;
17790;SDS011;9019;48.132;-1.210;2023-04-15T05:37:44;9.70;;;1.50;;
17790;SDS011;9019;48.132;-1.210;2023-04-15T05:40:11;9.93;;;1.57;;
17790;SDS011;9019;48.132;-1.210;2023-04-15T05:42:39;9.37;;;1.60;;
17790;SDS011;9019;48.132;-1.210;2023-04-15T05:45:08;10.20;;;2.20;;
17790;SDS011;9019;48.132;-1.210;2023-04-15T05:47:35;7.83;;;2.20;;
17790;SDS011;9019;48.132;-1.210;2023-04-15T05:50:03;9.93;;;2.27;;
17790;SDS011;9019;48.132;-1.210;2023-04-15T05:52:30;11.10;;;1.90;;
17790;SDS011;9019;48.132;-1.210;2023-04-15T05:54:57;7.93;;;1.90;;
17790;SDS011;9019;48.132;-1.210;2023-04-15T05:57:24;9.03;;;1.83;;
17790;SDS011;9019;48.132;-1.210;2023-04-15T05:59:52;6.80;;;1.77;;
17790;SDS011;9019;48.132;-1.210;2023-04-15T06:02:22;7.27;;;2.20;;
17790;SDS011;9019;48.132;-1.210;2023-04-15T06:04:50;7.53;;;1.90;;
17790;SDS011;9019;48.132;-1.210;2023-04-15T06:07:17;8.43;;;2.10;;
17790;SDS011;9019;48.132;-1.210;2023-04-15T06:09:45;8.33;;;1.97;;
17790;SDS011;9019;48.132;-1.210;2023-04-15T06:12:12;13.67;;;2.07;;
17790;SDS011;9019;48.132;-1.210;2023-04-15T06:14:40;8.90;;;1.97;;
17790;SDS011;9019;48.132;-1.210;2023-04-15T06:17:07;7.73;;;1.97;;
17790;SDS011;9019;48.132;-1.210;2023-04-15T06:19:36;7.07;;;1.90;;
17790;SDS011;9019;48.132;-1.210;2023-04-15T06:22:03;9.27;;;1.90;;
17790;SDS011;9019;48.132;-1.210;2023-04-15T06:24:31;6.50;;;1.73;;
17790;SDS011;9019;48.132;-1.210;2023-04-15T06:26:58;14.07;;;2.70;;
17790;SDS011;9019;48.132;-1.210;2023-04-15T06:29:26;9.03;;;2.70;;
17790;SDS011;9019;48.132;-1.210;2023-04-15T06:31:53;8.57;;;2.00;;
17790;SDS011;9019;48.132;-1.210;2023-04-15T06:34:20;5.40;;;1.83;;
17790;SDS011;9019;48.132;-1.210;2023-04-15T06:36:49;7.57;;;1.60;;
17790;SDS011;9019;48.132;-1.210;2023-04-15T06:39:16;10.13;;;2.63;;
17790;SDS011;9019;48.132;-1.210;2023-04-15T06:41:43;6.20;;;1.70;;
17790;SDS011;9019;48.132;-1.210;2023-04-15T06:44:11;19.07;;;2.97;;
17790;SDS011;9019;48.132;-1.210;2023-04-15T06:46:38;11.73;;;2.35;;
17790;SDS011;9019;48.132;-1.210;2023-04-15T06:49:05;8.18;;;1.73;;
17790;SDS011;9019;48.132;-1.210;2023-04-15T06:51:33;8.02;;;1.85;;
17790;SDS011;9019;48.132;-1.210;2023-04-15T06:54:02;8.10;;;1.98;;
17790;SDS011;9019;48.132;-1.210;2023-04-15T06:56:30;6.10;;;1.73;;
17790;SDS011;9019;48.132;-1.210;2023-04-15T06:58:57;6.85;;;1.67;;
17790;SDS011;9019;48.132;-1.210;2023-04-15T07:01:24;7.30;;;1.83;;
17790;SDS011;9019;48.132;-1.210;2023-04-15T07:03:52;6.20;;;1.95;;
17790;SDS011;9019;48.132;-1.210;2023-04-15T07:06:19;8.50;;;2.20;;
17790;SDS011;9019;48.132;-1.210;2023-04-15T07:08:46;7.53;;;2.10;;
17790;SDS011;9019;48.132;-1.210;2023-04-15T07:11:15;8.55;;;1.90;;
17790;SDS011;9019;48.132;-1.210;2023-04-15T07:13:42;9.15;;;1.88;;
17790;SDS011;9019;48.132;-1.210;2023-04-15T07:16:09;6.68;;;1.60;;
17790;SDS011;9019;48.132;-1.210;2023-04-15T07:18:37;8.57;;;1.95;;
17790;SDS011;9019;48.132;-1.210;2023-04-15T07:21:04;10.90;;;2.10;;
17790;SDS011;9019;48.132;-1.210;2023-04-15T07:23:31;12.23;;;2.28;;
17790;SDS011;9019;48.132;-1.210;2023-04-15T07:25:58;6.13;;;2.05;;
17790;SDS011;9019;48.132;-1.210;2023-04-15T07:28:27;4.97;;;1.92;;
17790;SDS011;9019;48.132;-1.210;2023-04-15T07:30:55;8.48;;;2.10;;
17790;SDS011;9019;48.132;-1.210;2023-04-15T07:33:22;5.97;;;1.90;;
17790;SDS011;9019;48.132;-1.210;2023-04-15T07:35:49;5.30;;;1.80;;
17790;SDS011;9019;48.132;-1.210;2023-04-15T07:38:16;11.48;;;2.15;;
17790;SDS011;9019;48.132;-1.210;2023-04-15T07:40:43;4.50;;;2.00;;
17790;SDS011;9019;48.132;-1.210;2023-04-15T07:43:12;5.07;;;1.63;;
17790;SDS011;9019;48.132;-1.210;2023-04-15T07:45:41;5.72;;;1.42;;
17790;SDS011;9019;48.132;-1.210;2023-04-15T07:48:08;6.20;;;1.67;;
17790;SDS011;9019;48.132;-1.210;2023-04-15T07:50:35;6.65;;;1.60;;
17790;SDS011;9019;48.132;-1.210;2023-04-15T07:53:02;5.55;;;1.58;;
17790;SDS011;9019;48.132;-1.210;2023-04-15T07:55:30;4.60;;;1.50;;
17790;SDS011;9019;48.132;-1.210;2023-04-15T07:57:57;4.15;;;1.30;;
17790;SDS011;9019;48.132;-1.210;2023-04-15T08:00:24;6.80;;;1.70;;
17790;SDS011;9019;48.132;-1.210;2023-04-15T08:02:53;6.63;;;1.55;;
17790;SDS011;9019;48.132;-1.210;2023-04-15T08:05:21;5.63;;;1.50;;
17790;SDS011;9019;48.132;-1.210;2023-04-15T08:07:48;3.60;;;1.48;;
17790;SDS011;9019;48.132;-1.210;2023-04-15T08:10:15;5.13;;;1.58;;
17790;SDS011;9019;48.132;-1.210;2023-04-15T08:12:43;3.33;;;1.10;;
17790;SDS011;9019;48.132;-1.210;2023-04-15T08:15:13;3.28;;;1.23;;
17790;SDS011;9019;48.132;-1.210;2023-04-15T08:17:40;3.97;;;1.40;;
17790;SDS011;9019;48.132;-1.210;2023-04-15T08:20:09;5.47;;;1.40;;
17790;SDS011;9019;48.132;-1.210;2023-04-15T08:22:37;6.07;;;1.42;;
17790;SDS011;9019;48.132;-1.210;2023-04-15T08:25:05;2.80;;;1.00;;
17790;SDS011;9019;48.132;-1.210;2023-04-15T08:27:33;4.57;;;1.30;;
17790;SDS011;9019;48.132;-1.210;2023-04-15T08:30:00;3.33;;;0.95;;
17790;SDS011;9019;48.132;-1.210;2023-04-15T08:32:27;2.25;;;1.10;;
17790;SDS011;9019;48.132;-1.210;2023-04-15T08:34:55;3.28;;;1.00;;
17790;SDS011;9019;48.132;-1.210;2023-04-15T08:37:23;5.65;;;1.35;;
17790;SDS011;9019;48.132;-1.210;2023-04-15T08:39:50;4.60;;;1.35;;
17790;SDS011;9019;48.132;-1.210;2023-04-15T08:42:18;3.00;;;0.98;;
17790;SDS011;9019;48.132;-1.210;2023-04-15T08:44:46;3.72;;;1.10;;
17790;SDS011;9019;48.132;-1.210;2023-04-15T08:47:14;5.53;;;1.20;;
17790;SDS011;9019;48.132;-1.210;2023-04-15T08:49:43;5.95;;;1.15;;
17790;SDS011;9019;48.132;-1.210;2023-04-15T08:52:12;2.88;;;1.02;;
17790;SDS011;9019;48.132;-1.210;2023-04-15T08:54:41;3.60;;;0.98;;
17790;SDS011;9019;48.132;-1.210;2023-04-15T08:57:08;4.25;;;0.95;;
17790;SDS011;9019;48.132;-1.210;2023-04-15T08:59:36;2.80;;;0.90;;
17790;SDS011;9019;48.132;-1.210;2023-04-15T09:02:03;4.97;;;1.10;;
17790;SDS011;9019;48.132;-1.210;2023-04-15T09:04:32;2.85;;;0.88;;
17790;SDS011;9019;48.132;-1.210;2023-04-15T09:06:59;4.45;;;1.00;;
17790;SDS011;9019;48.132;-1.210;2023-04-15T09:09:26;5.57;;;1.42;;
17790;SDS011;9019;48.132;-1.210;2023-04-15T09:11:55;3.38;;;0.90;;
17790;SDS011;9019;48.132;-1.210;2023-04-15T09:14:22;4.90;;;1.10;;
17790;SDS011;9019;48.132;-1.210;2023-04-15T09:16:55;5.15;;;1.20;;
17790;SDS011;9019;48.132;-1.210;2023-04-15T09:19:23;3.42;;;1.00;;
17790;SDS011;9019;48.132;-1.210;2023-04-15T09:21:51;3.97;;;0.90;;
17790;SDS011;9019;48.132;-1.210;2023-04-15T09:24:19;2.90;;;0.90;;
17790;SDS011;9019;48.132;-1.210;2023-04-15T09:26:46;4.15;;;0.85;;
17790;SDS011;9019;48.132;-1.210;2023-04-15T09:29:15;4.05;;;1.10;;
17790;SDS011;9019;48.132;-1.210;2023-04-15T09:31:42;4.45;;;0.98;;
17790;SDS011;9019;48.132;-1.210;2023-04-15T09:34:09;3.72;;;0.93;;
17790;SDS011;9019;48.132;-1.210;2023-04-15T09:36:52;3.88;;;1.00;;
17790;SDS011;9019;48.132;-1.210;2023-04-15T09:39:20;4.75;;;1.35;;
17790;SDS011;9019;48.132;-1.210;2023-04-15T09:41:51;4.15;;;0.98;;
17790;SDS011;9019;48.132;-1.210;2023-04-15T09:44:31;5.30;;;1.17;;
17790;SDS011;9019;48.132;-1.210;2023-04-15T09:46:58;2.92;;;0.82;;
17790;SDS011;9019;48.132;-1.210;2023-04-15T09:49:25;2.30;;;0.82;;
17790;SDS011;9019;48.132;-1.210;2023-04-15T09:51:56;3.45;;;1.10;;
17790;SDS011;9019;48.132;-1.210;2023-04-15T09:54:24;3.58;;;1.10;;
17790;SDS011;9019;48.132;-1.210;2023-04-15T09:56:51;7.07;;;1.30;;
17790;SDS011;9019;48.132;-1.210;2023-04-15T09:59:18;4.32;;;1.00;;
17790;SDS011;9019;48.132;-1.210;2023-04-15T10:01:46;3.08;;;0.90;;
17790;SDS011;9019;48.132;-1.210;2023-04-15T10:04:14;2.67;;;0.98;;
17790;SDS011;9019;48.132;-1.210;2023-04-15T10:06:41;4.63;;;0.85;;
17790;SDS011;9019;48.132;-1.210;2023-04-15T10:09:08;3.42;;;0.80;;
17790;SDS011;9019;48.132;-1.210;2023-04-15T10:11:36;2.75;;;0.80;;
17790;SDS011;9019;48.132;-1.210;2023-04-15T10:14:03;2.72;;;0.90;;
17790;SDS011;9019;48.132;-1.210;2023-04-15T10:16:32;4.47;;;0.88;;
17790;SDS011;9019;48.132;-1.210;2023-04-15T10:19:01;3.95;;;1.27;;
17790;SDS011;9019;48.132;-1.210;2023-04-15T10:21:29;3.50;;;1.00;;
17790;SDS011;9019;48.132;-1.210;2023-04-15T10:23:56;5.32;;;1.00;;
17790;SDS011;9019;48.132;-1.210;2023-04-15T10:26:24;4.28;;;0.80;;
17790;SDS011;9019;48.132;-1.210;2023-04-15T10:28:51;3.75;;;0.80;;
17790;SDS011;9019;48.132;-1.210;2023-04-15T10:31:19;3.42;;;0.80;;
17790;SDS011;9019;48.132;-1.210;2023-04-15T10:33:46;2.20;;;0.70;;
17790;SDS011;9019;48.132;-1.210;2023-04-15T10:36:15;3.90;;;0.95;;
17790;SDS011;9019;48.132;-1.210;2023-04-15T10:38:43;2.50;;;0.75;;
17790;SDS011;9019;48.132;-1.210;2023-04-15T10:41:11;2.67;;;0.80;;
17790;SDS011;9019;48.132;-1.210;2023-04-15T10:43:39;3.28;;;0.93;;
17790;SDS011;9019;48.132;-1.210;2023-04-15T10:46:06;3.38;;;0.68;;
17790;SDS011;9019;48.132;-1.210;2023-04-15T10:48:33;2.63;;;0.60;;
17790;SDS011;9019;48.132;-1.210;2023-04-15T10:51:01;2.67;;;1.10;;
17790;SDS011;9019;48.132;-1.210;2023-04-15T10:53:31;3.17;;;0.90;;
17790;SDS011;9019;48.132;-1.210;2023-04-15T10:56:01;1.65;;;0.80;;
17790;SDS011;9019;48.132;-1.210;2023-04-15T10:58:36;5.18;;;0.90;;
17790;SDS011;9019;48.132;-1.210;2023-04-15T11:01:07;3.55;;;1.10;;
17790;SDS011;9019;48.132;-1.210;2023-04-15T11:03:37;2.20;;;0.90;;
17790;SDS011;9019;48.132;-1.210;2023-04-15T11:06:05;1.73;;;0.70;;
17790;SDS011;9019;48.132;-1.210;2023-04-15T11:11:16;2.28;;;0.75;;
17790;SDS011;9019;48.132;-1.210;2023-04-15T11:13:46;6.63;;;0.85;;
17790;SDS011;9019;48.132;-1.210;2023-04-15T11:16:14;3.95;;;0.88;;
17790;SDS011;9019;48.132;-1.210;2023-04-15T11:18:41;4.57;;;0.70;;
17790;SDS011;9019;48.132;-1.210;2023-04-15T11:21:08;2.47;;;0.60;;
17790;SDS011;9019;48.132;-1.210;2023-04-15T11:23:37;3.90;;;0.60;;
17790;SDS011;9019;48.132;-1.210;2023-04-15T11:26:05;2.58;;;0.75;;
17790;SDS011;9019;48.132;-1.210;2023-04-15T11:28:37;1.40;;;0.70;;
17790;SDS011;9019;48.132;-1.210;2023-04-15T11:31:06;2.92;;;1.02;;
17790;SDS011;9019;48.132;-1.210;2023-04-15T11:33:35;3.80;;;0.88;;
17790;SDS011;9019;48.132;-1.210;2023-04-15T11:36:02;5.88;;;1.20;;
17790;SDS011;9019;48.132;-1.210;2023-04-15T11:38:30;1.77;;;0.63;;
17790;SDS011;9019;48.132;-1.210;2023-04-15T11:40:57;3.58;;;0.77;;
17790;SDS011;9019;48.132;-1.210;2023-04-15T11:43:24;2.47;;;0.70;;
17790;SDS011;9019;48.132;-1.210;2023-04-15T11:45:54;3.70;;;0.95;;
17790;SDS011;9019;48.132;-1.210;2023-04-15T11:48:22;2.67;;;0.80;;
17790;SDS011;9019;48.132;-1.210;2023-04-15T11:50:53;3.25;;;0.90;;
17790;SDS011;9019;48.132;-1.210;2023-04-15T11:53:20;2.45;;;0.77;;
17790;SDS011;9019;48.132;-1.210;2023-04-15T11:55:48;4.50;;;0.73;;
17790;SDS011;9019;48.132;-1.210;2023-04-15T11:58:18;4.25;;;0.73;;
17790;SDS011;9019;48.132;-1.210;2023-04-15T12:00:46;3.08;;;0.65;;
17790;SDS011;9019;48.132;-1.210;2023-04-15T12:03:17;3.53;;;0.98;;
17790;SDS011;9019;48.132;-1.210;2023-04-15T12:06:04;5.05;;;1.02;;
17790;SDS011;9019;48.132;-1.210;2023-04-15T12:08:47;2.97;;;0.77;;
17790;SDS011;9019;48.132;-1.210;2023-04-15T12:11:15;3.25;;;1.00;;
17790;SDS011;9019;48.132;-1.210;2023-04-15T12:13:42;2.72;;;0.70;;
17790;SDS011;9019;48.132;-1.210;2023-04-15T12:16:09;4.40;;;1.02;;
17790;SDS011;9019;48.132;-1.210;2023-04-15T12:18:38;2.60;;;1.05;;
17790;SDS011;9019;48.132;-1.210;2023-04-15T12:21:08;1.95;;;0.70;;
17790;SDS011;9019;48.132;-1.210;2023-04-15T12:23:36;2.45;;;0.77;;
17790;SDS011;9019;48.132;-1.210;2023-04-15T12:26:04;1.55;;;0.63;;
17790;SDS011;9019;48.132;-1.210;2023-04-15T12:28:32;3.17;;;0.93;;
17790;SDS011;9019;48.132;-1.210;2023-04-15T12:31:05;2.03;;;0.70;;
17790;SDS011;9019;48.132;-1.210;2023-04-15T12:33:32;4.07;;;1.10;;
17790;SDS011;9019;48.132;-1.210;2023-04-15T12:36:01;2.53;;;0.68;;
17790;SDS011;9019;48.132;-1.210;2023-04-15T12:38:28;1.83;;;0.73;;
17790;SDS011;9019;48.132;-1.210;2023-04-15T12:40:56;2.30;;;0.68;;
17790;SDS011;9019;48.132;-1.210;2023-04-15T12:43:23;1.95;;;0.80;;
17790;SDS011;9019;48.132;-1.210;2023-04-15T12:45:51;4.85;;;0.85;;
17790;SDS011;9019;48.132;-1.210;2023-04-15T12:48:18;4.70;;;0.90;;
17790;SDS011;9019;48.132;-1.210;2023-04-15T12:50:45;3.78;;;0.70;;
17790;SDS011;9019;48.132;-1.210;2023-04-15T12:53:14;2.45;;;1.00;;
17790;SDS011;9019;48.132;-1.210;2023-04-15T12:55:41;2.67;;;0.88;;
17790;SDS011;9019;48.132;-1.210;2023-04-15T12:58:08;1.95;;;0.60;;
17790;SDS011;9019;48.132;-1.210;2023-04-15T13:00:36;3.00;;;0.70;;
17790;SDS011;9019;48.132;-1.210;2023-04-15T13:03:03;3.90;;;0.80;;
17790;SDS011;9019;48.132;-1.210;2023-04-15T13:05:30;2.47;;;0.98;;
17790;SDS011;9019;48.132;-1.210;2023-04-15T13:07:57;4.15;;;0.82;;
17790;SDS011;9019;48.132;-1.210;2023-04-15T13:10:26;2.20;;;0.90;;
17790;SDS011;9019;48.132;-1.210;2023-04-15T13:12:53;3.10;;;0.80;;
17790;SDS011;9019;48.132;-1.210;2023-04-15T13:15:21;2.92;;;1.23;;
17790;SDS011;9019;48.132;-1.210;2023-04-15T13:17:48;2.17;;;0.90;;
17790;SDS011;9019;48.132;-1.210;2023-04-15T13:20:15;1.98;;;0.80;;
17790;SDS011;9019;48.132;-1.210;2023-04-15T13:22:42;2.45;;;0.82;;
17790;SDS011;9019;48.132;-1.210;2023-04-15T13:25:09;2.92;;;0.93;;
17790;SDS011;9019;48.132;-1.210;2023-04-15T13:27:38;3.88;;;1.10;;
17790;SDS011;9019;48.132;-1.210;2023-04-15T13:30:06;2.17;;;0.90;;
17790;SDS011;9019;48.132;-1.210;2023-04-15T13:32:33;2.42;;;1.00;;
17790;SDS011;9019;48.132;-1.210;2023-04-15T13:35:00;3.30;;;0.80;;
17790;SDS011;9019;48.132;-1.210;2023-04-15T13:37:28;2.92;;;0.70;;
17790;SDS011;9019;48.132;-1.210;2023-04-15T13:39:55;2.33;;;0.70;;
17790;SDS011;9019;48.132;-1.210;2023-04-15T13:42:22;2.70;;;0.90;;
17790;SDS011;9019;48.132;-1.210;2023-04-15T13:44:51;1.77;;;0.80;;
17790;SDS011;9019;48.132;-1.210;2023-04-15T13:47:18;3.15;;;1.00;;
17790;SDS011;9019;48.132;-1.210;2023-04-15T13:49:46;2.78;;;0.90;;
17790;SDS011;9019;48.132;-1.210;2023-04-15T13:52:13;3.78;;;0.85;;
17790;SDS011;9019;48.132;-1.210;2023-04-15T13:54:40;1.90;;;0.63;;
17790;SDS011;9019;48.132;-1.210;2023-04-15T13:57:07;4.00;;;0.93;;
17790;SDS011;9019;48.132;-1.210;2023-04-15T13:59:35;3.63;;;0.77;;
17790;SDS011;9019;48.132;-1.210;2023-04-15T14:02:03;2.92;;;0.80;;
17790;SDS011;9019;48.132;-1.210;2023-04-15T14:04:30;3.33;;;0.70;;
17790;SDS011;9019;48.132;-1.210;2023-04-15T14:06:57;5.38;;;0.80;;
17790;SDS011;9019;48.132;-1.210;2023-04-15T14:09:25;1.88;;;0.63;;
17790;SDS011;9019;48.132;-1.210;2023-04-15T14:11:52;1.27;;;0.68;;
17790;SDS011;9019;48.132;-1.210;2023-04-15T14:14:20;2.75;;;0.80;;
17790;SDS011;9019;48.132;-1.210;2023-04-15T14:16:47;2.78;;;1.10;;
17790;SDS011;9019;48.132;-1.210;2023-04-15T14:19:16;3.65;;;1.00;;
17790;SDS011;9019;48.132;-1.210;2023-04-15T14:21:43;2.28;;;0.80;;
17790;SDS011;9019;48.132;-1.210;2023-04-15T14:24:10;2.20;;;0.60;;
17790;SDS011;9019;48.132;-1.210;2023-04-15T14:26:37;2.88;;;0.88;;
17790;SDS011;9019;48.132;-1.210;2023-04-15T14:29:05;1.98;;;0.93;;
17790;SDS011;9019;48.132;-1.210;2023-04-15T14:31:32;1.63;;;0.63;;
17790;SDS011;9019;48.132;-1.210;2023-04-15T14:33:59;2.40;;;1.00;;
17790;SDS011;9019;48.132;-1.210;2023-04-15T14:36:28;4.07;;;0.73;;
17790;SDS011;9019;48.132;-1.210;2023-04-15T14:38:56;3.38;;;1.02;;
17790;SDS011;9019;48.132;-1.210;2023-04-15T14:41:23;3.10;;;0.60;;
17790;SDS011;9019;48.132;-1.210;2023-04-15T14:43:50;1.95;;;0.60;;
17790;SDS011;9019;48.132;-1.210;2023-04-15T14:46:18;2.30;;;0.50;;
17790;SDS011;9019;48.132;-1.210;2023-04-15T14:48:45;3.65;;;0.80;;
17790;SDS011;9019;48.132;-1.210;2023-04-15T14:51:12;2.40;;;0.77;;
17790;SDS011;9019;48.132;-1.210;2023-04-15T14:53:41;2.53;;;0.68;;